sensor_id;sensor_type;location;lat;lon;timestamp;pressure;altitude;pressure_sealevel;temperature;humidity
5814;BME280;2933;52.302;8.134;2023-02-19T00:03:07;100395.16;;;8.08;100.00
5814;BME280;2933;52.302;8.134;2023-02-19T00:08:08;100413.47;;;8.07;100.00
5814;BME280;2933;52.302;8.134;2023-02-19T00:13:11;100431.91;;;8.02;100.00
5814;BME280;2933;52.302;8.134;2023-02-19T00:18:14;100439.41;;;8.08;100.00
5814;BME280;2933;52.302;8.134;2023-02-19T00:23:15;100435.34;;;8.03;100.00
5814;BME280;2933;52.302;8.134;2023-02-19T00:28:18;100421.34;;;8.05;100.00
5814;BME280;2933;52.302;8.134;2023-02-19T00:33:20;100420.81;;;7.99;100.00
5814;BME280;2933;52.302;8.134;2023-02-19T00:38:21;100419.22;;;7.96;100.00
5814;BME280;2933;52.302;8.134;2023-02-19T00:43:24;100424.19;;;8.01;100.00
5814;BME280;2933;52.302;8.134;2023-02-19T00:48:25;100401.09;;;7.95;100.00
5814;BME280;2933;52.302;8.134;2023-02-19T00:53:27;100407.94;;;7.96;100.00
5814;BME280;2933;52.302;8.134;2023-02-19T00:58:30;100399.53;;;7.90;100.00
5814;BME280;2933;52.302;8.134;2023-02-19T01:03:31;100401.41;;;7.88;100.00
5814;BME280;2933;52.302;8.134;2023-02-19T01:08:33;100398.19;;;8.01;100.00
5814;BME280;2933;52.302;8.134;2023-02-19T01:13:36;100403.69;;;7.95;100.00
5814;BME280;2933;52.302;8.134;2023-02-19T01:18:38;100409.91;;;7.92;100.00
5814;BME280;2933;52.302;8.134;2023-02-19T01:23:40;100406.59;;;7.88;100.00
5814;BME280;2933;52.302;8.134;2023-02-19T01:28:43;100406.13;;;7.98;100.00
5814;BME280;2933;52.302;8.134;2023-02-19T01:33:45;100389.50;;;8.00;100.00
5814;BME280;2933;52.302;8.134;2023-02-19T01:38:47;100389.38;;;8.03;100.00
5814;BME280;2933;52.302;8.134;2023-02-19T01:43:58;100390.19;;;8.04;100.00
5814;BME280;2933;52.302;8.134;2023-02-19T01:49:04;100386.50;;;8.08;100.00
5814;BME280;2933;52.302;8.134;2023-02-19T01:54:08;100395.94;;;8.11;100.00
5814;BME280;2933;52.302;8.134;2023-02-19T01:59:13;100389.19;;;8.06;100.00
5814;BME280;2933;52.302;8.134;2023-02-19T02:04:16;100385.59;;;8.09;100.00
5814;BME280;2933;52.302;8.134;2023-02-19T02:09:20;100389.66;;;8.15;100.00
5814;BME280;2933;52.302;8.134;2023-02-19T02:14:43;100388.13;;;8.11;100.00
5814;BME280;2933;52.302;8.134;2023-02-19T02:20:00;100388.28;;;8.07;100.00
5814;BME280;2933;52.302;8.134;2023-02-19T02:25:37;100390.19;;;8.04;100.00
5814;BME280;2933;52.302;8.134;2023-02-19T02:30:43;100382.94;;;8.11;100.00
5814;BME280;2933;52.302;8.134;2023-02-19T02:35:50;100388.88;;;8.13;100.00
5814;BME280;2933;52.302;8.134;2023-02-19T02:40:54;100386.38;;;8.11;100.00
5814;BME280;2933;52.302;8.134;2023-02-19T02:45:57;100386.03;;;8.17;100.00
5814;BME280;2933;52.302;8.134;2023-02-19T02:51:04;100389.41;;;8.19;100.00
5814;BME280;2933;52.302;8.134;2023-02-19T02:56:07;100386.38;;;8.11;100.00
5814;BME280;2933;52.302;8.134;2023-02-19T03:01:15;100381.66;;;8.18;100.00
5814;BME280;2933;52.302;8.134;2023-02-19T03:06:36;100381.88;;;8.31;100.00
5814;BME280;2933;52.302;8.134;2023-02-19T03:11:40;100386.81;;;8.19;100.00
5814;BME280;2933;52.302;8.134;2023-02-19T03:17:06;100394.03;;;8.30;100.00
5814;BME280;2933;52.302;8.134;2023-02-19T03:22:30;100401.44;;;8.22;100.00
5814;BME280;2933;52.302;8.134;2023-02-19T03:27:35;100396.44;;;8.17;100.00
5814;BME280;2933;52.302;8.134;2023-02-19T03:32:43;100406.94;;;8.16;100.00
5814;BME280;2933;52.302;8.134;2023-02-19T03:37:53;100414.44;;;8.22;100.00
5814;BME280;2933;52.302;8.134;2023-02-19T03:43:02;100412.06;;;8.17;100.00
5814;BME280;2933;52.302;8.134;2023-02-19T03:48:21;100417.41;;;8.14;100.00
5814;BME280;2933;52.302;8.134;2023-02-19T03:53:30;100415.66;;;8.15;100.00
5814;BME280;2933;52.302;8.134;2023-02-19T03:58:39;100419.34;;;8.11;100.00
5814;BME280;2933;52.302;8.134;2023-02-19T04:03:45;100445.53;;;8.07;100.00
5814;BME280;2933;52.302;8.134;2023-02-19T04:08:52;100440.41;;;8.06;100.00
5814;BME280;2933;52.302;8.134;2023-02-19T04:13:57;100449.94;;;8.05;100.00
5814;BME280;2933;52.302;8.134;2023-02-19T04:19:04;100450.03;;;8.04;100.00
5814;BME280;2933;52.302;8.134;2023-02-19T04:24:11;100468.16;;;8.05;100.00
5814;BME280;2933;52.302;8.134;2023-02-19T04:29:13;100467.09;;;8.09;100.00
5814;BME280;2933;52.302;8.134;2023-02-19T04:34:16;100472.75;;;8.00;100.00
5814;BME280;2933;52.302;8.134;2023-02-19T04:39:18;100489.28;;;7.99;100.00
5814;BME280;2933;52.302;8.134;2023-02-19T04:44:20;100495.34;;;8.00;100.00
5814;BME280;2933;52.302;8.134;2023-02-19T04:49:23;100501.53;;;7.97;100.00
5814;BME280;2933;52.302;8.134;2023-02-19T04:54:24;100509.28;;;7.99;100.00
5814;BME280;2933;52.302;8.134;2023-02-19T04:59:26;100516.28;;;7.97;100.00
5814;BME280;2933;52.302;8.134;2023-02-19T05:04:29;100521.06;;;7.88;100.00
5814;BME280;2933;52.302;8.134;2023-02-19T05:09:31;100546.00;;;7.92;100.00
5814;BME280;2933;52.302;8.134;2023-02-19T05:14:32;100548.19;;;7.83;100.00
5814;BME280;2933;52.302;8.134;2023-02-19T05:19:36;100553.19;;;7.87;100.00
5814;BME280;2933;52.302;8.134;2023-02-19T05:24:38;100556.00;;;7.83;100.00
5814;BME280;2933;52.302;8.134;2023-02-19T05:29:39;100562.56;;;7.72;100.00
5814;BME280;2933;52.302;8.134;2023-02-19T05:34:42;100591.09;;;6.98;100.00
5814;BME280;2933;52.302;8.134;2023-02-19T05:39:43;100603.88;;;6.20;100.00
5814;BME280;2933;52.302;8.134;2023-02-19T05:44:45;100617.06;;;5.91;100.00
5814;BME280;2933;52.302;8.134;2023-02-19T05:49:48;100633.44;;;5.47;100.00
5814;BME280;2933;52.302;8.134;2023-02-19T05:54:49;100646.94;;;5.32;100.00
5814;BME280;2933;52.302;8.134;2023-02-19T05:59:51;100652.91;;;5.34;100.00
5814;BME280;2933;52.302;8.134;2023-02-19T06:04:54;100659.63;;;5.40;100.00
5814;BME280;2933;52.302;8.134;2023-02-19T06:09:55;100659.03;;;5.08;100.00
5814;BME280;2933;52.302;8.134;2023-02-19T06:14:57;100683.72;;;4.93;100.00
5814;BME280;2933;52.302;8.134;2023-02-19T06:20:00;100702.13;;;4.83;100.00
5814;BME280;2933;52.302;8.134;2023-02-19T06:25:02;100708.03;;;4.89;100.00
5814;BME280;2933;52.302;8.134;2023-02-19T06:30:04;100720.38;;;4.80;100.00
5814;BME280;2933;52.302;8.134;2023-02-19T06:35:07;100738.94;;;4.66;100.00
5814;BME280;2933;52.302;8.134;2023-02-19T06:40:09;100748.59;;;4.61;100.00
5814;BME280;2933;52.302;8.134;2023-02-19T06:45:11;100762.88;;;4.73;100.00
5814;BME280;2933;52.302;8.134;2023-02-19T06:50:14;100778.66;;;4.92;100.00
5814;BME280;2933;52.302;8.134;2023-02-19T06:55:15;100793.03;;;4.74;100.00
5814;BME280;2933;52.302;8.134;2023-02-19T07:00:17;100810.34;;;4.72;100.00
5814;BME280;2933;52.302;8.134;2023-02-19T07:05:20;100818.81;;;4.77;100.00
5814;BME280;2933;52.302;8.134;2023-02-19T07:10:21;100826.63;;;4.76;100.00
5814;BME280;2933;52.302;8.134;2023-02-19T07:15:23;100834.59;;;4.69;100.00
5814;BME280;2933;52.302;8.134;2023-02-19T07:20:26;100841.31;;;4.75;100.00
5814;BME280;2933;52.302;8.134;2023-02-19T07:25:27;100858.50;;;4.78;100.00
5814;BME280;2933;52.302;8.134;2023-02-19T07:30:29;100861.47;;;4.65;100.00
5814;BME280;2933;52.302;8.134;2023-02-19T07:35:31;100883.81;;;4.68;100.00
5814;BME280;2933;52.302;8.134;2023-02-19T07:40:33;100902.19;;;4.89;100.00
5814;BME280;2933;52.302;8.134;2023-02-19T07:45:35;100903.03;;;4.89;100.00
5814;BME280;2933;52.302;8.134;2023-02-19T07:50:38;100892.59;;;4.62;100.00
5814;BME280;2933;52.302;8.134;2023-02-19T07:55:40;100914.06;;;4.66;100.00
5814;BME280;2933;52.302;8.134;2023-02-19T08:00:42;100925.28;;;4.65;100.00
5814;BME280;2933;52.302;8.134;2023-02-19T08:05:45;100942.00;;;4.55;100.00
5814;BME280;2933;52.302;8.134;2023-02-19T08:10:49;100947.47;;;4.44;100.00
5814;BME280;2933;52.302;8.134;2023-02-19T08:16:10;100965.84;;;4.34;100.00
5814;BME280;2933;52.302;8.134;2023-02-19T08:21:14;100971.59;;;4.44;100.00
5814;BME280;2933;52.302;8.134;2023-02-19T08:26:18;100978.09;;;4.26;100.00
5814;BME280;2933;52.302;8.134;2023-02-19T08:31:19;100992.03;;;4.22;100.00
5814;BME280;2933;52.302;8.134;2023-02-19T08:36:22;100984.47;;;4.14;100.00
5814;BME280;2933;52.302;8.134;2023-02-19T08:41:23;100988.81;;;4.12;100.00
5814;BME280;2933;52.302;8.134;2023-02-19T08:46:25;100976.22;;;4.33;100.00
5814;BME280;2933;52.302;8.134;2023-02-19T08:51:28;100992.97;;;4.51;100.00
5814;BME280;2933;52.302;8.134;2023-02-19T08:56:29;101011.69;;;4.61;100.00
5814;BME280;2933;52.302;8.134;2023-02-19T09:01:31;101024.56;;;4.64;100.00
5814;BME280;2933;52.302;8.134;2023-02-19T09:06:34;101034.59;;;4.43;100.00
5814;BME280;2933;52.302;8.134;2023-02-19T09:11:37;101054.75;;;4.63;100.00
5814;BME280;2933;52.302;8.134;2023-02-19T09:16:39;101051.81;;;4.76;100.00
5814;BME280;2933;52.302;8.134;2023-02-19T09:21:42;101055.66;;;4.92;100.00
5814;BME280;2933;52.302;8.134;2023-02-19T09:26:44;101053.22;;;4.88;100.00
5814;BME280;2933;52.302;8.134;2023-02-19T09:31:45;101069.09;;;5.07;100.00
5814;BME280;2933;52.302;8.134;2023-02-19T09:36:49;101080.84;;;5.18;100.00
5814;BME280;2933;52.302;8.134;2023-02-19T09:41:52;101088.59;;;4.87;100.00
5814;BME280;2933;52.302;8.134;2023-02-19T09:46:55;101107.63;;;5.17;100.00
5814;BME280;2933;52.302;8.134;2023-02-19T09:52:05;101132.50;;;5.53;100.00
5814;BME280;2933;52.302;8.134;2023-02-19T09:57:13;101131.25;;;5.37;100.00
5814;BME280;2933;52.302;8.134;2023-02-19T10:02:16;101143.47;;;5.33;100.00
5814;BME280;2933;52.302;8.134;2023-02-19T10:07:22;101171.03;;;5.65;100.00
5814;BME280;2933;52.302;8.134;2023-02-19T10:12:25;101168.44;;;5.65;100.00
5814;BME280;2933;52.302;8.134;2023-02-19T10:17:29;101179.09;;;5.56;100.00
5814;BME280;2933;52.302;8.134;2023-02-19T10:22:36;101186.56;;;5.67;100.00
5814;BME280;2933;52.302;8.134;2023-02-19T10:27:38;101192.44;;;5.42;100.00
5814;BME280;2933;52.302;8.134;2023-02-19T10:32:57;101206.22;;;5.43;100.00
5814;BME280;2933;52.302;8.134;2023-02-19T10:38:00;101198.75;;;5.63;100.00
5814;BME280;2933;52.302;8.134;2023-02-19T10:43:03;101210.44;;;5.47;100.00
5814;BME280;2933;52.302;8.134;2023-02-19T10:48:20;101210.38;;;6.10;100.00
5814;BME280;2933;52.302;8.134;2023-02-19T10:53:37;101212.91;;;6.11;100.00
5814;BME280;2933;52.302;8.134;2023-02-19T10:58:41;101215.06;;;5.97;100.00
5814;BME280;2933;52.302;8.134;2023-02-19T11:03:45;101223.81;;;5.93;100.00
5814;BME280;2933;52.302;8.134;2023-02-19T11:08:55;101245.25;;;5.68;100.00
5814;BME280;2933;52.302;8.134;2023-02-19T11:14:01;101251.44;;;5.94;100.00
5814;BME280;2933;52.302;8.134;2023-02-19T11:19:04;101246.56;;;5.83;100.00
5814;BME280;2933;52.302;8.134;2023-02-19T11:24:21;101239.53;;;6.46;100.00
5814;BME280;2933;52.302;8.134;2023-02-19T11:29:23;101228.44;;;6.95;100.00
5814;BME280;2933;52.302;8.134;2023-02-19T11:34:28;101232.53;;;6.75;100.00
5814;BME280;2933;52.302;8.134;2023-02-19T11:39:31;101241.50;;;6.10;100.00
5814;BME280;2933;52.302;8.134;2023-02-19T11:44:44;101231.38;;;6.02;100.00
5814;BME280;2933;52.302;8.134;2023-02-19T11:49:51;101216.78;;;5.98;100.00
5814;BME280;2933;52.302;8.134;2023-02-19T11:55:05;101220.50;;;6.19;100.00
5814;BME280;2933;52.302;8.134;2023-02-19T12:00:22;101213.59;;;6.45;100.00
5814;BME280;2933;52.302;8.134;2023-02-19T12:05:40;101220.16;;;6.57;100.00
5814;BME280;2933;52.302;8.134;2023-02-19T12:10:56;101227.38;;;7.01;100.00
5814;BME280;2933;52.302;8.134;2023-02-19T12:16:12;101225.16;;;7.15;100.00
5814;BME280;2933;52.302;8.134;2023-02-19T12:21:24;101246.13;;;7.83;100.00
5814;BME280;2933;52.302;8.134;2023-02-19T12:26:34;101248.88;;;7.31;100.00
5814;BME280;2933;52.302;8.134;2023-02-19T12:37:15;101271.09;;;6.61;100.00
5814;BME280;2933;52.302;8.134;2023-02-19T12:42:35;101263.19;;;6.91;100.00
5814;BME280;2933;52.302;8.134;2023-02-19T12:47:41;101273.50;;;6.94;100.00
5814;BME280;2933;52.302;8.134;2023-02-19T12:52:47;101275.75;;;7.30;100.00
5814;BME280;2933;52.302;8.134;2023-02-19T12:57:52;101278.06;;;7.87;98.01
5814;BME280;2933;52.302;8.134;2023-02-19T13:02:59;101274.75;;;8.07;98.30
5814;BME280;2933;52.302;8.134;2023-02-19T13:08:04;101275.25;;;8.17;94.78
5814;BME280;2933;52.302;8.134;2023-02-19T13:13:14;101272.97;;;7.60;97.42
5814;BME280;2933;52.302;8.134;2023-02-19T13:18:23;101254.34;;;7.47;97.29
5814;BME280;2933;52.302;8.134;2023-02-19T13:23:29;101267.75;;;7.36;96.52
5814;BME280;2933;52.302;8.134;2023-02-19T13:29:01;101271.13;;;7.38;94.66
5814;BME280;2933;52.302;8.134;2023-02-19T13:34:14;101274.34;;;6.94;98.18
5814;BME280;2933;52.302;8.134;2023-02-19T13:39:21;101284.47;;;7.02;100.00
5814;BME280;2933;52.302;8.134;2023-02-19T13:44:25;101271.09;;;6.88;97.48
5814;BME280;2933;52.302;8.134;2023-02-19T13:49:39;101278.84;;;6.89;93.92
5814;BME280;2933;52.302;8.134;2023-02-19T13:54:42;101281.56;;;6.85;94.19
5814;BME280;2933;52.302;8.134;2023-02-19T13:59:45;101298.72;;;6.90;92.32
5814;BME280;2933;52.302;8.134;2023-02-19T14:04:52;101294.38;;;6.91;95.48
5814;BME280;2933;52.302;8.134;2023-02-19T14:09:54;101314.00;;;7.00;96.74
5814;BME280;2933;52.302;8.134;2023-02-19T14:15:38;101327.72;;;7.03;96.63
5814;BME280;2933;52.302;8.134;2023-02-19T14:20:42;101331.28;;;7.01;97.95
5814;BME280;2933;52.302;8.134;2023-02-19T14:25:48;101339.34;;;6.93;94.67
5814;BME280;2933;52.302;8.134;2023-02-19T14:30:54;101331.44;;;6.96;94.62
5814;BME280;2933;52.302;8.134;2023-02-19T14:36:01;101331.94;;;6.81;92.49
5814;BME280;2933;52.302;8.134;2023-02-19T14:41:05;101319.78;;;6.81;94.09
5814;BME280;2933;52.302;8.134;2023-02-19T14:46:14;101326.59;;;6.85;92.91
5814;BME280;2933;52.302;8.134;2023-02-19T14:51:24;101290.00;;;6.65;93.16
5814;BME280;2933;52.302;8.134;2023-02-19T14:56:31;101282.38;;;6.87;92.03
5814;BME280;2933;52.302;8.134;2023-02-19T15:01:35;101269.06;;;6.98;93.03
5814;BME280;2933;52.302;8.134;2023-02-19T15:06:38;101255.25;;;7.21;96.93
5814;BME280;2933;52.302;8.134;2023-02-19T15:11:41;101255.06;;;7.27;94.99
5814;BME280;2933;52.302;8.134;2023-02-19T15:16:44;101239.03;;;7.14;93.06
5814;BME280;2933;52.302;8.134;2023-02-19T15:21:47;101242.59;;;7.11;94.48
5814;BME280;2933;52.302;8.134;2023-02-19T15:26:50;101243.22;;;6.93;93.43
5814;BME280;2933;52.302;8.134;2023-02-19T15:31:56;101236.13;;;6.98;94.71
5814;BME280;2933;52.302;8.134;2023-02-19T15:37:00;101247.00;;;7.09;94.53
5814;BME280;2933;52.302;8.134;2023-02-19T15:42:04;101254.38;;;7.22;97.83
5814;BME280;2933;52.302;8.134;2023-02-19T15:47:14;101268.03;;;7.27;95.88
5814;BME280;2933;52.302;8.134;2023-02-19T15:52:35;101283.38;;;7.09;96.77
5814;BME280;2933;52.302;8.134;2023-02-19T15:57:44;101286.91;;;7.07;95.59
5814;BME280;2933;52.302;8.134;2023-02-19T16:02:48;101290.41;;;7.06;96.90
5814;BME280;2933;52.302;8.134;2023-02-19T16:08:05;101294.09;;;6.99;95.38
5814;BME280;2933;52.302;8.134;2023-02-19T16:13:10;101289.09;;;6.94;98.64
5814;BME280;2933;52.302;8.134;2023-02-19T16:18:13;101284.19;;;7.11;100.00
5814;BME280;2933;52.302;8.134;2023-02-19T16:23:16;101291.47;;;7.00;100.00
5814;BME280;2933;52.302;8.134;2023-02-19T16:28:23;101294.22;;;6.95;100.00
5814;BME280;2933;52.302;8.134;2023-02-19T16:33:47;101298.41;;;7.00;100.00
5814;BME280;2933;52.302;8.134;2023-02-19T16:39:15;101294.91;;;7.01;100.00
5814;BME280;2933;52.302;8.134;2023-02-19T16:44:29;101310.84;;;6.90;100.00
5814;BME280;2933;52.302;8.134;2023-02-19T16:49:32;101310.97;;;6.87;100.00
5814;BME280;2933;52.302;8.134;2023-02-19T16:54:34;101312.41;;;6.95;100.00
5814;BME280;2933;52.302;8.134;2023-02-19T16:59:36;101314.75;;;7.03;100.00
5814;BME280;2933;52.302;8.134;2023-02-19T17:04:39;101317.75;;;6.91;100.00
5814;BME280;2933;52.302;8.134;2023-02-19T17:09:40;101330.66;;;6.92;100.00
5814;BME280;2933;52.302;8.134;2023-02-19T17:14:42;101330.84;;;6.88;100.00
5814;BME280;2933;52.302;8.134;2023-02-19T17:19:45;101350.88;;;6.84;100.00
5814;BME280;2933;52.302;8.134;2023-02-19T17:24:46;101344.72;;;6.87;100.00
5814;BME280;2933;52.302;8.134;2023-02-19T17:29:48;101336.72;;;6.93;100.00
5814;BME280;2933;52.302;8.134;2023-02-19T17:34:50;101329.38;;;6.79;100.00
5814;BME280;2933;52.302;8.134;2023-02-19T17:39:52;101337.19;;;6.79;100.00
5814;BME280;2933;52.302;8.134;2023-02-19T17:44:53;101331.78;;;6.85;100.00
5814;BME280;2933;52.302;8.134;2023-02-19T17:49:56;101325.47;;;6.92;100.00
5814;BME280;2933;52.302;8.134;2023-02-19T17:54:58;101317.94;;;6.85;100.00
5814;BME280;2933;52.302;8.134;2023-02-19T17:59:59;101335.59;;;6.73;100.00
5814;BME280;2933;52.302;8.134;2023-02-19T18:05:02;101347.69;;;6.74;100.00
5814;BME280;2933;52.302;8.134;2023-02-19T18:10:05;101351.31;;;6.70;100.00
5814;BME280;2933;52.302;8.134;2023-02-19T18:15:09;101361.59;;;6.73;100.00
5814;BME280;2933;52.302;8.134;2023-02-19T18:20:14;101368.66;;;6.68;100.00
5814;BME280;2933;52.302;8.134;2023-02-19T18:25:16;101375.28;;;6.78;100.00
5814;BME280;2933;52.302;8.134;2023-02-19T18:30:19;101379.81;;;6.72;100.00
5814;BME280;2933;52.302;8.134;2023-02-19T18:35:23;101379.69;;;6.76;100.00
5814;BME280;2933;52.302;8.134;2023-02-19T18:40:24;101377.34;;;6.67;100.00
5814;BME280;2933;52.302;8.134;2023-02-19T18:45:26;101380.50;;;6.77;100.00
5814;BME280;2933;52.302;8.134;2023-02-19T18:50:30;101366.19;;;6.63;100.00
5814;BME280;2933;52.302;8.134;2023-02-19T18:55:32;101365.97;;;6.71;100.00
5814;BME280;2933;52.302;8.134;2023-02-19T19:00:34;101369.88;;;6.56;100.00
5814;BME280;2933;52.302;8.134;2023-02-19T19:05:37;101362.84;;;6.60;100.00
5814;BME280;2933;52.302;8.134;2023-02-19T19:10:39;101368.03;;;6.60;100.00
5814;BME280;2933;52.302;8.134;2023-02-19T19:15:40;101357.44;;;6.68;100.00
5814;BME280;2933;52.302;8.134;2023-02-19T19:20:45;101363.72;;;6.60;100.00
5814;BME280;2933;52.302;8.134;2023-02-19T19:25:47;101359.34;;;6.61;100.00
5814;BME280;2933;52.302;8.134;2023-02-19T19:30:49;101323.69;;;6.38;100.00
5814;BME280;2933;52.302;8.134;2023-02-19T19:35:51;101358.66;;;6.56;100.00
5814;BME280;2933;52.302;8.134;2023-02-19T19:40:53;101372.63;;;6.52;100.00
5814;BME280;2933;52.302;8.134;2023-02-19T19:45:55;101383.09;;;6.49;100.00
5814;BME280;2933;52.302;8.134;2023-02-19T19:50:58;101389.16;;;6.49;100.00
5814;BME280;2933;52.302;8.134;2023-02-19T19:56:00;101386.94;;;6.35;100.00
5814;BME280;2933;52.302;8.134;2023-02-19T20:01:01;101378.94;;;6.43;100.00
5814;BME280;2933;52.302;8.134;2023-02-19T20:06:06;101359.31;;;6.33;100.00
5814;BME280;2933;52.302;8.134;2023-02-19T20:11:08;101380.94;;;6.33;100.00
5814;BME280;2933;52.302;8.134;2023-02-19T20:16:09;101375.28;;;6.49;100.00
5814;BME280;2933;52.302;8.134;2023-02-19T20:21:14;101368.63;;;6.40;100.00
5814;BME280;2933;52.302;8.134;2023-02-19T20:26:23;101367.16;;;6.31;100.00
5814;BME280;2933;52.302;8.134;2023-02-19T20:31:25;101366.16;;;6.37;100.00
5814;BME280;2933;52.302;8.134;2023-02-19T20:36:28;101358.72;;;6.23;100.00
5814;BME280;2933;52.302;8.134;2023-02-19T20:41:31;101350.22;;;6.19;100.00
5814;BME280;2933;52.302;8.134;2023-02-19T20:46:39;101348.41;;;6.21;100.00
5814;BME280;2933;52.302;8.134;2023-02-19T20:51:45;101345.69;;;6.26;100.00
5814;BME280;2933;52.302;8.134;2023-02-19T20:56:48;101365.91;;;6.14;100.00
5814;BME280;2933;52.302;8.134;2023-02-19T21:01:50;101371.09;;;6.14;100.00
5814;BME280;2933;52.302;8.134;2023-02-19T21:06:53;101378.59;;;6.24;100.00
5814;BME280;2933;52.302;8.134;2023-02-19T21:11:55;101386.00;;;6.06;100.00
5814;BME280;2933;52.302;8.134;2023-02-19T21:16:57;101377.50;;;6.01;100.00
5814;BME280;2933;52.302;8.134;2023-02-19T21:22:00;101384.44;;;6.01;100.00
5814;BME280;2933;52.302;8.134;2023-02-19T21:27:02;101372.28;;;6.03;100.00
5814;BME280;2933;52.302;8.134;2023-02-19T21:32:03;101380.28;;;5.93;100.00
5814;BME280;2933;52.302;8.134;2023-02-19T21:37:06;101369.56;;;6.07;100.00
5814;BME280;2933;52.302;8.134;2023-02-19T21:42:08;101363.09;;;5.89;100.00
5814;BME280;2933;52.302;8.134;2023-02-19T21:47:10;101350.88;;;5.93;100.00
5814;BME280;2933;52.302;8.134;2023-02-19T21:52:13;101357.28;;;5.81;100.00
5814;BME280;2933;52.302;8.134;2023-02-19T21:57:14;101359.78;;;5.84;100.00
5814;BME280;2933;52.302;8.134;2023-02-19T22:02:16;101346.03;;;5.82;100.00
5814;BME280;2933;52.302;8.134;2023-02-19T22:07:21;101350.13;;;5.89;100.00
5814;BME280;2933;52.302;8.134;2023-02-19T22:12:22;101341.56;;;5.87;100.00
5814;BME280;2933;52.302;8.134;2023-02-19T22:17:24;101331.31;;;5.82;100.00
5814;BME280;2933;52.302;8.134;2023-02-19T22:22:26;101336.41;;;5.86;100.00
5814;BME280;2933;52.302;8.134;2023-02-19T22:27:28;101342.44;;;5.86;100.00
5814;BME280;2933;52.302;8.134;2023-02-19T22:32:29;101346.19;;;5.74;100.00
5814;BME280;2933;52.302;8.134;2023-02-19T22:37:32;101340.50;;;5.61;100.00
5814;BME280;2933;52.302;8.134;2023-02-19T22:42:34;101354.75;;;5.78;100.00
5814;BME280;2933;52.302;8.134;2023-02-19T22:47:36;101356.66;;;5.71;100.00
5814;BME280;2933;52.302;8.134;2023-02-19T22:52:40;101372.28;;;5.68;100.00
5814;BME280;2933;52.302;8.134;2023-02-19T22:57:42;101356.66;;;5.71;100.00
5814;BME280;2933;52.302;8.134;2023-02-19T23:02:43;101373.47;;;5.56;100.00
5814;BME280;2933;52.302;8.134;2023-02-19T23:07:47;101351.09;;;5.54;100.00
5814;BME280;2933;52.302;8.134;2023-02-19T23:12:48;101356.47;;;5.46;100.00
5814;BME280;2933;52.302;8.134;2023-02-19T23:17:50;101350.00;;;5.28;100.00
5814;BME280;2933;52.302;8.134;2023-02-19T23:22:53;101360.00;;;5.42;100.00
5814;BME280;2933;52.302;8.134;2023-02-19T23:27:54;101359.91;;;5.46;100.00
5814;BME280;2933;52.302;8.134;2023-02-19T23:32:57;101349.69;;;5.40;100.00
5814;BME280;2933;52.302;8.134;2023-02-19T23:38:00;101348.81;;;5.41;100.00
5814;BME280;2933;52.302;8.134;2023-02-19T23:43:02;101356.63;;;5.40;100.00
5814;BME280;2933;52.302;8.134;2023-02-19T23:48:03;101356.59;;;5.41;100.00
5814;BME280;2933;52.302;8.134;2023-02-19T23:53:06;101341.03;;;5.41;100.00
5814;BME280;2933;52.302;8.134;2023-02-19T23:58:08;101342.00;;;5.37;100.00
